FW4441 Weather Reports


time (UTC)temp
C
wind
direction
speed
KPH
gust
KPH
rain 1hr
cm
rain 24hr
cm
rain mn
cm
humidity
%
barometer
mb
20200531081530 11 239 0.0 0.0 0.00 2.13 0.00 78 1014.4
20200531080029 11 226 0.0 0.0 0.00 2.13 0.00 77 1014.1
20200531074531 11 225 0.0 0.0 0.00 2.13 0.00 77 1014.1
20200531073030 11 217 0.0 0.0 0.00 2.13 0.00 77 1014.1
20200531071531 11 210 0.0 0.0 0.00 2.13 0.00 77 1014.1
20200531070031 11 240 0.0 0.0 0.00 2.13 0.00 75 1013.7
20200531064530 11 245 0.0 0.0 0.00 2.13 0.00 74 1014.1
20200531063033 11 221 0.0 0.0 0.00 2.13 0.00 73 1014.1
20200531061528 11 199 0.0 0.0 0.00 2.13 0.00 74 1014.1
20200531060029 11 225 0.0 0.0 0.00 2.13 0.00 72 1013.7
20200531054529 11 225 0.0 0.0 0.00 2.13 0.00 72 1013.7
20200531053031 11 213 4.8 0.0 0.00 2.13 0.00 72 1013.7
20200531051532 11 212 14.5 0.0 0.00 2.13 0.00 73 1013.7
20200531050030 11 220 11.3 0.0 0.00 2.13 0.00 71 1013.7
20200531044530 11 215 11.3 0.0 0.00 2.13 0.00 70 1013.7
20200531043028 11 202 4.8 0.0 0.00 2.13 0.00 71 1013.4
20200531041530 11 199 3.2 0.0 0.00 2.13 0.00 70 1013.4
20200531040030 11 199 16.1 0.0 0.00 2.13 0.00 68 1013.0
20200531034528 11 203 14.5 0.0 0.00 2.13 0.00 68 1013.0
20200531033030 11 206 12.9 0.0 0.00 2.13 0.00 68 1012.7
20200531031533 11 207 9.7 0.0 0.00 2.13 0.00 71 1012.7
20200531030029 11 201 11.3 0.0 0.00 2.13 0.00 74 1012.7
20200531024531 12 198 6.4 0.0 0.00 2.13 0.00 72 1012.7
20200531023029 12 204 0.0 0.0 0.00 2.13 0.00 75 1012.3
20200531021528 12 204 0.0 0.0 0.00 2.13 0.00 75 1012.3
20200531020034 11 203 0.0 0.0 0.00 2.13 0.00 79 1012.0
20200531014530 11 203 0.0 0.0 0.03 2.13 0.00 81 1012.0
20200531013030 11 210 0.0 0.0 0.03 2.13 0.00 85 1012.0
20200531011530 11 212 0.0 0.0 0.03 2.13 0.00 87 1011.6
20200531010028 11 211 0.0 0.0 0.03 2.13 0.00 92 1011.3
20200531004531 11 232 0.0 0.0 0.03 2.11 0.00 92 1011.3
20200531003030 11 224 0.0 0.0 0.05 2.11 0.00 91 1011.3
20200531001531 11 246 0.0 0.0 0.10 2.11 0.00 91 1011.3
20200531000030 11 263 0.0 0.0 0.41 2.11 0.00 89 1010.9
20200530234528 11 214 0.0 0.0 0.58 2.08 0.00 88 1010.9
20200530233030 11 325 0.0 0.0 1.88 2.06 0.00 86 1010.6
20200530231530 11 274 0.0 0.0 2.01 2.01 0.00 82 1010.2
20200530230031 13 197 0.0 0.0 1.70 1.70 0.00 71 1011.6
20200530224529 14 204 0.0 0.0 1.50 1.50 0.00 67 1010.6
20200530223031 14 197 4.8 0.0 0.18 0.18 0.00 67 1009.9
20200530221528 15 200 8.0 0.0 0.00 0.00 0.00 66 1008.9
20200530220031 15 201 11.3 0.0 0.00 0.00 0.00 66 1008.2
20200530214530 16 235 14.5 0.0 0.00 0.00 0.00 66 1007.8
20200530213028 17 245 1.6 0.0 0.00 0.00 0.00 63 1007.5
20200530211531 18 244 1.6 0.0 0.00 0.00 0.00 60 1007.5
20200530210029 20 246 4.8 0.0 0.00 0.00 0.00 59 1007.5
20200530204529 20 249 17.7 0.0 0.00 0.00 0.00 61 1006.8
20200530203032 19 247 6.4 0.0 0.00 0.00 0.00 61 1006.8
20200530201528 20 256 20.9 0.0 0.00 0.00 0.00 62 1006.4
20200530200028 20 273 14.5 0.0 0.00 0.00 0.00 62 1006.1
20200530194529 20 274 17.7 0.0 0.00 0.00 0.00 61 1005.7
20200530193028 21 284 19.3 0.0 0.00 0.00 0.00 60 1005.7
20200530191531 21 308 4.8 0.0 0.00 0.00 0.00 63 1005.7
20200530190031 20 341 1.6 0.0 0.00 0.00 0.00 63 1005.4
20200530184532 21 348 8.0 0.0 0.00 0.00 0.00 63 1005.4
20200530183031 20 357 8.0 0.0 0.00 0.00 0.00 64 1005.4
20200530181531 20 4 9.7 0.0 0.00 0.00 0.00 65 1005.4
20200530180029 18 360 11.3 0.0 0.00 0.00 0.00 69 1005.4
20200530174532 18 19 12.9 0.0 0.00 0.00 0.00 67 1005.7
20200530173030 19 5 6.4 0.0 0.00 0.00 0.00 66 1005.7
20200530171528 20 9 9.7 0.0 0.00 0.00 0.00 65 1006.1
20200530170029 20 2 6.4 0.0 0.00 0.00 0.00 65 1006.4
20200530164528 19 25 4.8 0.0 0.00 0.00 0.00 67 1006.8
20200530163039 19 337 1.6 0.0 0.00 0.00 0.00 67 1007.1
20200530161527 19 307 1.6 0.0 0.00 0.00 0.00 68 1007.5
20200530160030 18 352 3.2 0.0 0.00 0.00 0.00 70 1007.8
20200530154529 17 8 0.0 0.0 0.00 0.00 0.00 70 1008.2
20200530153029 17 5 0.0 0.0 0.00 0.00 0.00 71 1007.8
20200530151530 16 20 0.0 0.0 0.00 0.00 0.00 72 1007.8
20200530150030 15 330 0.0 0.0 0.00 0.00 0.00 72 1008.2
20200530144530 15 19 0.0 0.0 0.00 0.00 0.00 71 1008.2
20200530143029 16 329 4.8 0.0 0.00 0.00 0.00 72 1008.9
20200530141530 16 343 0.0 0.0 0.00 0.00 0.00 70 1008.9
20200530140030 16 12 0.0 0.0 0.00 0.00 0.00 71 1008.5
20200530134528 16 9 0.0 0.0 0.00 0.00 0.00 72 1007.8
20200530133031 16 3 0.0 0.0 0.00 0.00 0.00 72 1007.5
20200530131531 16 9 0.0 0.0 0.00 0.00 0.00 72 1007.5
20200530130038 16 19 0.0 0.0 0.00 0.00 0.00 71 1007.5
20200530124531 16 5 0.0 0.0 0.00 0.00 0.00 72 1007.8
20200530123031 17 13 1.6 0.0 0.00 0.00 0.00 74 1007.5
20200530121531 16 17 1.6 0.0 0.00 0.00 0.00 77 1008.2
20200530120032 16 345 4.8 0.0 0.00 0.00 0.00 78 1008.2
20200530114530 16 351 0.0 0.0 0.00 0.00 0.00 80 1007.8
20200530113030 16 9 0.0 0.0 0.00 0.00 0.00 81 1007.8
20200530111532 16 336 0.0 0.0 0.00 0.00 0.00 80 1007.8
20200530110030 16 152 0.0 0.0 0.00 0.00 0.00 80 1007.5
20200530104531 16 248 0.0 0.0 0.00 0.00 0.00 79 1007.8
20200530103031 16 163 0.0 0.0 0.00 0.00 0.00 79 1007.8
20200530101528 16 169 0.0 0.0 0.00 0.00 0.00 78 1007.8
20200530100029 16 42 0.0 0.0 0.00 0.00 0.00 78 1007.8
20200530094530 17 91 0.0 0.0 0.00 0.00 0.00 78 1008.2
20200530093030 17 36 0.0 0.0 0.00 0.00 0.00 75 1008.2
20200530091531 17 348 0.0 0.0 0.00 0.00 0.00 73 1008.5
20200530090029 18 32 0.0 0.0 0.00 0.00 0.00 73 1008.9
20200530084529 18 66 0.0 0.0 0.00 0.00 0.00 72 1008.9
20200530083030 18 176 0.0 0.0 0.00 0.00 0.00 70 1008.9